Time;durP1;ratioP1;P1;durP2;ratioP2;P2;SDS_P1;SDS_P2;PMS_P1;PMS_P2;Temp;Humidity;BMP_temperature;BMP_pressure;BME280_temperature;BME280_humidity;BME280_pressure;Samples;Min_cycle;Max_cycle;Signal;HPM_P1;HPM_P2
2021/05/15 00:00:34;;;;;;;2.03;1.10;;;9.50;99.90;;;7.85;82.17;100373.53;3492788;40;103365;-39
2021/05/15 00:03:01;;;;;;;2.00;1.10;;;9.40;99.90;;;7.78;82.07;100376.25;3483858;40;102302;-40
2021/05/15 00:05:29;;;;;;;2.08;1.10;;;9.30;99.90;;;7.76;82.21;100378.31;3484224;40;103322;-39
2021/05/15 00:07:55;;;;;;;2.08;1.20;;;9.30;99.90;;;7.70;82.58;100373.72;3492489;40;103270;-39
2021/05/15 00:10:22;;;;;;;2.08;1.08;;;9.20;99.90;;;7.62;82.59;100366.59;3492496;40;102536;-39
2021/05/15 00:12:49;;;;;;;2.58;1.20;;;9.20;99.90;;;7.55;82.25;100374.69;3500793;40;104913;-40
2021/05/15 00:15:17;;;;;;;2.65;1.15;;;9.10;99.90;;;7.45;82.12;100375.09;3484376;40;102352;-39
2021/05/15 00:17:44;;;;;;;2.63;0.90;;;9.00;99.90;;;7.37;82.49;100369.84;3492361;40;104840;-39
2021/05/15 00:20:15;;;;;;;2.28;1.35;;;8.90;99.90;;;7.28;82.61;100374.59;3500643;40;102443;-40
2021/05/15 00:22:44;;;;;;;1.52;0.98;;;8.80;99.90;;;7.21;82.38;100371.03;3500937;40;104436;-40
2021/05/15 00:25:16;;;;;;;2.55;1.33;;;8.70;99.90;;;7.14;82.85;100373.69;3484797;40;102205;-39
2021/05/15 00:27:44;;;;;;;2.42;1.20;;;8.70;99.90;;;7.11;82.87;100359.69;3500729;40;105118;-39
2021/05/15 00:30:15;;;;;;;1.58;1.00;;;8.70;99.90;;;7.08;82.59;100363.66;3500743;40;102932;-39
2021/05/15 00:32:43;;;;;;;1.77;1.02;;;8.60;99.90;;;7.03;83.04;100369.66;3500873;40;102153;-39
2021/05/15 00:35:12;;;;;;;1.65;1.10;;;8.60;99.90;;;7.00;83.31;100363.78;3500276;40;102630;-39
2021/05/15 00:37:40;;;;;;;1.27;1.10;;;8.50;99.90;;;6.95;83.58;100364.41;3500288;40;102467;-39
2021/05/15 00:40:11;;;;;;;1.88;1.20;;;8.50;99.90;;;6.93;84.18;100362.94;3500207;40;104174;-39
2021/05/15 00:42:39;;;;;;;1.58;1.00;;;8.50;99.90;;;6.88;84.19;100356.22;3500825;40;102307;-39
2021/05/15 00:45:09;;;;;;;1.42;1.10;;;8.40;99.90;;;6.85;84.06;100355.78;3500010;40;103002;-39
2021/05/15 00:47:37;;;;;;;1.60;1.10;;;8.40;99.90;;;6.83;83.98;100355.16;3501104;40;103452;-39
2021/05/15 00:50:06;;;;;;;2.03;1.13;;;8.40;99.90;;;6.80;84.15;100363.69;3500384;40;103364;-39
2021/05/15 00:52:35;;;;;;;3.95;1.70;;;8.40;99.90;;;6.76;84.27;100350.53;3500768;40;102195;-39
2021/05/15 00:55:11;;;;;;;3.65;1.67;;;8.40;99.90;;;6.75;84.67;100351.56;3500103;40;102508;-39
2021/05/15 00:57:41;;;;;;;3.20;1.90;;;8.40;99.90;;;6.77;84.92;100348.66;3501011;40;104174;-39
2021/05/15 01:00:12;;;;;;;3.42;1.80;;;8.40;99.90;;;6.78;85.34;100344.91;3509651;40;102127;-39
2021/05/15 01:02:40;;;;;;;2.22;1.27;;;8.40;99.90;;;6.79;85.13;100345.75;3499155;40;103271;-40
2021/05/15 01:05:11;;;;;;;2.58;1.50;;;8.40;99.90;;;6.82;85.40;100351.63;3499839;40;103222;-39
2021/05/15 01:07:42;;;;;;;2.90;1.60;;;8.40;99.90;;;6.83;85.30;100344.31;3492994;40;105611;-39
2021/05/15 01:10:11;;;;;;;3.08;1.55;;;8.40;99.90;;;6.81;85.50;100343.66;3500703;40;103498;-39
2021/05/15 01:12:53;;;;;;;2.92;1.80;;;8.40;99.90;;;6.80;85.51;100342.00;3500456;40;104256;-39
2021/05/15 01:15:26;;;;;;;3.28;2.10;;;8.40;99.90;;;6.79;85.80;100337.59;3492462;40;102347;-41
2021/05/15 01:18:03;;;;;;;3.20;2.00;;;8.30;99.90;;;6.77;85.99;100340.53;3500332;40;104944;-40
2021/05/15 01:20:31;;;;;;;4.90;2.50;;;8.30;99.90;;;6.71;85.99;100339.44;3492292;40;102496;-39
2021/05/15 01:23:00;;;;;;;3.47;2.10;;;8.30;99.90;;;6.68;85.59;100331.72;3492281;40;105893;-39
2021/05/15 01:25:27;;;;;;;3.08;1.90;;;8.30;99.90;;;6.64;85.55;100335.88;3492066;40;102561;-39
2021/05/15 01:27:54;;;;;;;3.10;2.00;;;8.20;99.90;;;6.61;85.31;100341.66;3484862;40;102439;-39
2021/05/15 01:30:23;;;;;;;4.07;2.07;;;8.20;99.90;;;6.62;85.60;100337.91;3492491;40;104549;-39
2021/05/15 01:32:49;;;;;;;3.75;2.00;;;8.20;99.90;;;6.61;85.73;100333.53;3508527;40;103140;-39
2021/05/15 01:35:18;;;;;;;3.00;1.73;;;8.20;99.90;;;6.59;85.32;100338.31;3483792;40;102446;-39
2021/05/15 01:37:45;;;;;;;3.13;2.03;;;8.20;99.90;;;6.59;85.41;100338.31;3500361;40;103016;-39
2021/05/15 01:40:13;;;;;;;4.10;2.20;;;8.10;99.90;;;6.53;85.21;100337.25;3492163;40;102597;-39
2021/05/15 01:42:40;;;;;;;;;;;8.10;99.90;;;6.59;85.39;100341.03;3492706;40;102345;-39
2021/05/15 01:45:07;;;;;;;5.25;2.47;;;8.10;99.90;;;6.60;85.71;100337.28;3500006;40;102907;-39
2021/05/15 01:47:37;;;;;;;4.05;2.60;;;8.10;99.90;;;6.64;86.23;100327.72;3500454;40;103142;-39
2021/05/15 01:50:07;;;;;;;3.80;2.05;;;8.10;99.90;;;6.70;86.92;100332.34;3500198;40;103274;-42
2021/05/15 01:52:34;;;;;;;3.85;2.25;;;8.20;99.90;;;6.72;86.99;100337.56;3492199;40;105843;-39
2021/05/15 01:55:12;;;;;;;4.07;2.47;;;8.30;99.90;;;6.74;87.38;100333.63;3492410;40;102472;-39
2021/05/15 01:57:40;;;;;;;3.90;2.55;;;8.30;99.90;;;6.77;87.67;100332.41;3493217;40;102221;-39
2021/05/15 02:00:08;;;;;;;4.83;2.60;;;8.30;99.90;;;6.82;88.05;100329.94;3484486;40;103691;-39
2021/05/15 02:02:39;;;;;;;4.63;3.00;;;8.30;99.90;;;6.87;88.51;100321.16;3499963;40;102248;-39
2021/05/15 02:05:07;;;;;;;4.43;2.83;;;8.40;99.90;;;6.90;88.55;100313.47;3623954;22;103335;-39
2021/05/15 02:07:33;;;;;;;5.50;3.17;;;8.40;99.90;;;6.98;88.89;100317.91;3520828;39;103296;-39
2021/05/15 02:10:00;;;;;;;5.35;2.80;;;8.50;99.90;;;7.01;88.85;100306.66;3520421;39;105891;-39
2021/05/15 02:12:27;;;;;;;5.15;3.30;;;8.50;99.90;;;7.09;89.44;100308.34;3503662;39;105707;-39
2021/05/15 02:14:53;;;;;;;4.68;3.03;;;8.60;99.90;;;7.13;89.31;100298.78;3503723;39;104085;-39
2021/05/15 02:17:21;;;;;;;4.57;3.08;;;8.60;99.90;;;7.20;89.91;100290.66;3519564;39;104089;-39
2021/05/15 02:19:47;;;;;;;5.30;3.47;;;8.70;99.90;;;7.26;89.94;100280.84;3520298;39;103996;-39
2021/05/15 02:22:14;;;;;;;5.63;3.50;;;8.70;99.90;;;7.30;90.32;100288.38;3520389;39;103053;-39
2021/05/15 02:24:41;;;;;;;5.10;3.13;;;8.80;99.90;;;7.33;90.17;100287.97;3519972;39;104456;-39
2021/05/15 02:27:09;;;;;;;5.25;3.10;;;8.90;99.90;;;7.38;90.50;100286.53;3528461;39;105226;-39
2021/05/15 02:29:35;;;;;;;4.40;2.63;;;8.90;99.90;;;7.41;90.52;100283.41;3520358;39;103329;-39
2021/05/15 02:32:02;;;;;;;4.10;2.92;;;8.90;99.90;;;7.44;90.68;100285.72;3520095;39;104543;-39
2021/05/15 02:34:29;;;;;;;5.88;3.13;;;8.90;99.90;;;7.42;90.44;100282.34;3520140;39;104012;-39
2021/05/15 02:36:56;;;;;;;4.80;3.08;;;8.90;99.90;;;7.47;90.36;100280.72;3528072;39;103395;-39
2021/05/15 02:39:23;;;;;;;6.20;2.92;;;9.00;99.90;;;7.50;90.26;100279.47;3511792;39;104970;-39
2021/05/15 02:41:49;;;;;;;4.88;3.20;;;9.00;99.90;;;7.53;90.13;100272.78;3520296;39;104957;-39
2021/05/15 02:44:16;;;;;;;4.72;3.22;;;9.00;99.90;;;7.56;90.59;100272.38;3519932;39;104160;-39
2021/05/15 02:46:43;;;;;;;3.80;2.60;;;9.10;99.90;;;7.59;90.35;100272.78;3520132;39;106279;-39
2021/05/15 02:49:10;;;;;;;4.27;2.70;;;9.10;99.90;;;7.63;90.55;100274.06;3520397;39;105388;-39
2021/05/15 02:51:36;;;;;;;5.50;3.10;;;9.10;99.90;;;7.69;90.86;100274.25;3528727;39;103445;-39
2021/05/15 02:54:04;;;;;;;4.82;3.38;;;9.20;99.90;;;7.71;90.91;100267.59;3519693;39;104265;-39
2021/05/15 02:56:31;;;;;;;5.80;3.83;;;9.20;99.90;;;7.77;91.04;100268.66;3519824;39;106258;-39
2021/05/15 02:58:58;;;;;;;5.32;3.90;;;9.20;99.90;;;7.81;91.15;100271.78;3528242;39;105376;-39
2021/05/15 03:01:26;;;;;;;7.15;4.43;;;9.30;99.90;;;7.87;91.50;100270.97;3528687;39;103032;-39
2021/05/15 03:03:53;;;;;;;7.87;5.27;;;9.30;99.90;;;7.88;91.87;100257.16;3519025;39;103772;-39
2021/05/15 03:06:20;;;;;;;7.22;4.93;;;9.40;99.90;;;7.98;91.91;100261.34;3519874;39;105004;-39
2021/05/15 03:08:47;;;;;;;8.02;5.10;;;9.40;99.90;;;8.00;92.12;100262.81;3520142;39;105169;-39
2021/05/15 03:11:14;;;;;;;6.72;4.93;;;9.50;99.90;;;8.03;92.06;100261.56;3520103;39;106308;-39
2021/05/15 03:13:40;;;;;;;5.78;4.38;;;9.50;99.90;;;8.06;92.03;100255.69;3528341;39;102516;-39
2021/05/15 03:16:07;;;;;;;8.63;5.78;;;9.50;99.90;;;8.11;92.07;100271.38;3519868;39;106055;-39
2021/05/15 03:18:35;;;;;;;8.07;5.47;;;9.60;99.90;;;8.15;92.22;100262.59;3528690;39;102639;-39
2021/05/15 03:21:02;;;;;;;7.00;5.23;;;9.60;99.90;;;8.22;92.54;100262.59;3511682;39;105944;-39
2021/05/15 03:23:29;;;;;;;9.50;5.80;;;9.70;99.90;;;8.26;92.64;100263.81;3519481;39;104521;-39
2021/05/15 03:25:55;;;;;;;8.80;5.90;;;9.70;99.90;;;8.29;92.90;100268.03;3519156;39;105943;-39
2021/05/15 03:28:22;;;;;;;8.65;5.90;;;9.80;99.90;;;8.33;92.64;100271.97;3519787;39;104852;-40
2021/05/15 03:30:50;;;;;;;8.60;5.10;;;9.80;99.90;;;8.35;92.78;100268.03;3519870;39;103176;-40
2021/05/15 03:33:17;;;;;;;10.95;6.15;;;9.80;99.90;;;8.34;92.83;100260.06;3519503;39;104735;-38
2021/05/15 03:35:44;;;;;;;7.47;5.13;;;9.80;99.90;;;8.42;92.99;100262.53;3519569;39;105865;-39
2021/05/15 03:38:11;;;;;;;8.48;5.32;;;9.90;99.90;;;8.47;92.77;100265.47;3520096;39;104369;-39
2021/05/15 03:40:37;;;;;;;9.82;5.32;;;9.90;99.90;;;8.52;92.69;100267.59;3519937;39;104833;-39
2021/05/15 03:43:04;;;;;;;7.78;5.05;;;9.90;99.90;;;8.54;92.59;100267.38;3519432;39;104999;-39
2021/05/15 03:45:31;;;;;;;7.13;4.32;;;10.00;99.90;;;8.56;92.22;100265.28;3519414;39;105222;-39
2021/05/15 03:47:58;;;;;;;7.65;4.93;;;10.00;99.90;;;8.61;91.98;100268.19;3519616;39;105075;-39
2021/05/15 03:50:26;;;;;;;7.32;4.97;;;10.00;99.90;;;8.63;91.62;100263.38;3519497;39;104207;-40
2021/05/15 03:52:53;;;;;;;7.07;4.40;;;10.00;99.90;;;8.65;91.44;100265.91;3519649;39;105062;-39
2021/05/15 03:55:20;;;;;;;6.33;4.40;;;10.10;99.90;;;8.65;91.62;100260.47;3527669;39;104050;-39
2021/05/15 03:57:47;;;;;;;8.18;4.45;;;10.10;99.90;;;8.68;91.56;100266.28;3519544;39;104494;-39
2021/05/15 04:00:15;;;;;;;6.07;4.15;;;10.10;99.90;;;8.71;91.40;100265.84;3519637;39;104652;-39
2021/05/15 04:02:41;;;;;;;;;;;10.10;99.90;;;8.73;91.20;100263.75;3528636;39;102367;-40
2021/05/15 04:05:10;;;;;;;7.05;3.83;;;10.10;99.90;;;8.75;91.27;100261.69;3502964;39;104896;-41
2021/05/15 04:07:36;;;;;;;7.32;3.90;;;10.20;99.90;;;8.79;90.85;100270.22;3519996;39;103795;-39
2021/05/15 04:10:05;;;;;;;4.95;3.20;;;10.20;99.90;;;8.74;90.64;100257.25;3519846;39;103658;-40
2021/05/15 04:12:35;;;;;;;5.88;3.17;;;10.20;99.90;;;8.80;89.87;100268.34;3519537;39;104227;-40
2021/05/15 04:15:07;;;;;;;5.20;3.10;;;10.20;99.90;;;8.83;89.61;100273.38;3519315;39;105114;-40
2021/05/15 04:17:35;;;;;;;4.70;3.03;;;10.20;99.90;;;8.82;89.18;100258.91;3519472;39;102486;-40
2021/05/15 04:20:04;;;;;;;4.18;2.78;;;10.20;99.90;;;8.87;88.72;100267.25;3519337;39;104978;-40
2021/05/15 04:22:31;;;;;;;5.10;2.70;;;10.30;99.90;;;8.84;88.17;100264.16;3519346;39;104700;-39
2021/05/15 04:25:00;;;;;;;4.65;2.67;;;10.30;99.90;;;8.91;88.30;100263.09;3519050;39;106277;-39
2021/05/15 04:27:27;;;;;;;4.63;2.67;;;10.30;99.90;;;8.92;88.23;100267.47;3511168;39;104949;-39
2021/05/15 04:29:55;;;;;;;4.32;2.53;;;10.30;99.90;;;8.98;87.38;100268.47;3519319;39;104730;-39
2021/05/15 04:32:22;;;;;;;4.38;2.60;;;10.40;99.90;;;8.98;86.35;100267.66;3519351;39;105123;-39
2021/05/15 04:34:49;;;;;;;4.60;2.50;;;10.40;99.90;;;9.01;86.38;100270.75;3510857;39;105858;-40
2021/05/15 04:37:16;;;;;;;6.20;2.83;;;10.40;99.90;;;9.05;86.49;100269.31;3512303;39;104278;-40
2021/05/15 04:39:43;;;;;;;6.68;2.60;;;10.40;99.90;;;9.12;86.31;100260.28;3528711;39;103416;-39
2021/05/15 04:42:09;;;;;;;4.72;2.50;;;10.50;99.90;;;9.12;86.45;100263.00;3520868;39;104434;-39
2021/05/15 04:44:36;;;;;;;4.85;2.55;;;10.50;99.90;;;9.19;85.91;100266.50;3520400;39;104950;-40
2021/05/15 04:47:02;;;;;;;3.78;2.50;;;10.50;99.90;;;9.25;84.18;100264.81;3520731;39;104120;-40
2021/05/15 04:49:29;;;;;;;4.05;2.03;;;10.60;99.90;;;9.28;84.77;100267.94;3520692;39;105383;-40
2021/05/15 04:51:55;;;;;;;4.15;2.55;;;10.60;99.90;;;9.35;84.45;100266.00;3520584;39;104138;-39
2021/05/15 04:54:22;;;;;;;3.38;2.15;;;10.70;99.90;;;9.40;84.81;100267.25;3520148;39;106286;-39
2021/05/15 04:56:48;;;;;;;5.20;2.40;;;10.70;99.90;;;9.43;83.46;100267.66;3529311;39;103285;-40
2021/05/15 04:59:15;;;;;;;5.50;2.03;;;10.80;99.90;;;9.46;83.56;100260.91;3520695;39;105002;-40
2021/05/15 05:01:42;;;;;;;3.70;2.22;;;10.80;99.90;;;9.48;83.12;100265.09;3520471;39;103407;-40
2021/05/15 05:04:08;;;;;;;3.70;2.30;;;10.80;99.90;;;9.53;82.71;100271.78;3528157;39;103126;-39
2021/05/15 05:06:36;;;;;;;3.47;2.20;;;10.90;99.90;;;9.54;82.99;100266.09;3520754;39;104092;-39
2021/05/15 05:09:04;;;;;;;4.25;2.10;;;10.90;99.90;;;9.50;82.47;100263.00;3521000;39;104712;-39
2021/05/15 05:11:31;;;;;;;4.40;2.10;;;10.90;99.90;;;9.57;83.30;100268.41;3529700;39;103550;-40
2021/05/15 05:13:58;;;;;;;4.70;2.17;;;10.90;99.90;;;9.60;83.53;100273.41;3511960;39;105362;-39
2021/05/15 05:16:25;;;;;;;3.80;1.90;;;10.90;99.90;;;9.60;82.68;100267.97;3520420;39;104268;-39
2021/05/15 05:18:51;;;;;;;4.35;2.20;;;11.00;99.90;;;9.65;82.65;100267.28;3520475;39;103221;-39
2021/05/15 05:21:18;;;;;;;5.60;2.78;;;11.00;99.90;;;9.67;80.94;100267.06;3529228;39;103318;-39
2021/05/15 05:23:44;;;;;;;6.15;2.80;;;11.00;99.90;;;9.64;80.89;100263.75;3520459;39;105065;-40
2021/05/15 05:26:13;;;;;;;4.65;2.30;;;11.00;99.90;;;9.66;81.39;100268.94;3520263;39;103864;-40
2021/05/15 05:28:41;;;;;;;4.18;2.58;;;11.00;99.90;;;9.73;81.21;100267.03;3520559;39;104978;-40
2021/05/15 05:31:08;;;;;;;4.03;2.53;;;11.10;99.90;;;9.75;81.73;100262.19;3528506;39;102382;-39
2021/05/15 05:33:37;;;;;;;4.13;2.65;;;11.10;99.90;;;9.76;82.23;100268.47;3528696;39;103327;-40
2021/05/15 05:36:06;;;;;;;5.03;2.72;;;11.10;99.90;;;9.79;82.72;100259.84;3520399;39;105490;-39
2021/05/15 05:38:33;;;;;;;4.35;2.65;;;11.10;99.90;;;9.81;82.67;100255.00;3512297;39;105938;-40
2021/05/15 05:40:59;;;;;;;5.20;3.25;;;11.20;99.90;;;9.84;81.79;100260.03;3520653;39;104337;-39
2021/05/15 05:43:26;;;;;;;5.00;2.88;;;11.20;99.90;;;9.85;81.84;100258.97;3511948;39;104665;-39
2021/05/15 05:45:52;;;;;;;4.47;2.47;;;11.20;99.90;;;9.89;81.85;100262.09;3520684;39;103906;-40
2021/05/15 05:48:19;;;;;;;4.95;3.20;;;11.20;99.90;;;9.91;82.41;100251.78;3528124;39;102441;-40
2021/05/15 05:50:47;;;;;;;4.40;2.50;;;11.20;99.90;;;9.91;82.22;100255.38;3512343;39;104132;-40
2021/05/15 05:53:14;;;;;;;7.05;3.92;;;11.20;99.90;;;9.91;80.97;100258.09;3528618;39;104299;-39
2021/05/15 05:55:40;;;;;;;6.72;3.40;;;11.30;99.90;;;10.05;81.53;100257.97;3520259;39;105404;-39
2021/05/15 05:58:07;;;;;;;4.65;3.28;;;11.30;99.90;;;10.00;80.85;100258.66;3520294;39;105449;-40
2021/05/15 06:00:33;;;;;;;5.53;3.10;;;11.30;99.90;;;10.04;80.75;100261.75;3520280;39;103788;-39
2021/05/15 06:03:00;;;;;;;5.93;3.25;;;11.40;99.90;;;10.03;80.78;100254.63;3520302;39;104990;-39
2021/05/15 06:05:26;;;;;;;5.65;3.00;;;11.40;99.90;;;10.07;80.69;100255.84;3519987;39;103875;-39
2021/05/15 06:07:53;;;;;;;5.18;3.17;;;11.40;99.90;;;10.15;80.34;100252.88;3528851;39;103089;-39
2021/05/15 06:10:19;;;;;;;7.30;3.08;;;11.50;99.90;;;10.22;80.97;100252.81;3528810;39;102494;-40
2021/05/15 06:12:46;;;;;;;6.43;3.88;;;11.50;99.90;;;10.24;80.62;100256.16;3528844;39;105936;-40
2021/05/15 06:15:13;;;;;;;7.70;3.60;;;11.50;99.90;;;10.27;80.81;100261.16;3519910;39;103968;-40
2021/05/15 06:17:40;;;;;;;5.90;3.40;;;11.50;99.90;;;10.29;80.02;100258.19;3528912;39;103300;-39
2021/05/15 06:20:08;;;;;;;7.47;3.42;;;11.60;99.90;;;10.28;79.41;100259.22;3528838;39;102424;-39
2021/05/15 06:22:34;;;;;;;8.68;4.72;;;11.60;99.90;;;10.30;79.58;100254.38;3529308;39;102209;-39
2021/05/15 06:25:00;;;;;;;8.98;4.55;;;11.60;99.90;;;10.28;79.91;100251.06;3528136;39;103267;-40
2021/05/15 06:27:27;;;;;;;9.20;4.15;;;11.60;99.90;;;10.33;79.85;100252.06;3520478;39;104969;-39
2021/05/15 06:29:56;;;;;;;9.23;5.00;;;11.60;99.90;;;10.40;79.79;100253.88;3528944;39;102803;-40
2021/05/15 06:32:23;;;;;;;8.85;4.85;;;11.70;99.90;;;10.45;78.87;100244.00;3520435;39;103469;-40
2021/05/15 06:34:49;;;;;;;8.77;4.80;;;11.70;99.90;;;10.50;79.40;100248.78;3519877;39;104213;-39
2021/05/15 06:37:16;;;;;;;8.88;5.07;;;11.80;99.90;;;10.54;79.51;100249.16;3528578;39;103149;-40
2021/05/15 06:39:43;;;;;;;10.82;5.55;;;11.80;99.90;;;10.59;79.44;100252.88;3528263;39;103352;-40
2021/05/15 06:42:11;;;;;;;8.27;5.07;;;11.80;99.90;;;10.60;78.37;100250.97;3520349;39;104913;-39
2021/05/15 06:44:37;;;;;;;7.53;5.07;;;11.80;99.90;;;10.64;77.56;100255.75;3528546;39;102388;-40
2021/05/15 06:47:04;;;;;;;9.50;5.53;;;11.90;99.90;;;10.68;78.17;100253.41;3528256;39;102321;-39
2021/05/15 06:49:31;;;;;;;8.05;4.43;;;11.90;99.90;;;10.67;76.94;100253.63;3528193;39;104615;-40
2021/05/15 06:51:57;;;;;;;8.45;4.05;;;11.90;99.90;;;10.72;78.91;100254.63;3528427;39;104045;-39
2021/05/15 06:54:24;;;;;;;6.55;4.10;;;12.00;99.90;;;10.78;77.14;100253.69;3527767;39;104809;-40
2021/05/15 06:56:51;;;;;;;6.18;4.00;;;12.10;99.90;;;10.83;77.04;100246.72;3529518;39;104124;-40
2021/05/15 06:59:18;;;;;;;6.85;4.50;;;12.10;99.90;;;10.88;77.08;100249.63;3529040;39;102414;-39
2021/05/15 07:01:45;;;;;;;6.82;4.25;;;12.10;99.90;;;10.96;77.23;100254.75;3528429;39;102117;-39
2021/05/15 07:04:12;;;;;;;6.70;3.90;;;12.20;99.90;;;11.06;75.80;100248.75;3527119;39;102506;-39
2021/05/15 07:06:38;;;;;;;6.55;3.97;;;12.20;99.90;;;11.18;77.50;100237.91;3528101;39;104247;-40
2021/05/15 07:09:06;;;;;;;6.60;4.05;;;12.30;99.90;;;11.28;77.86;100243.63;3520512;39;103504;-39
2021/05/15 07:11:32;;;;;;;12.05;5.40;;;12.40;99.90;;;11.37;78.23;100239.50;3520087;39;105065;-40
2021/05/15 07:13:59;;;;;;;6.55;4.28;;;12.50;99.90;;;11.40;77.71;100240.94;3527989;39;105174;-39
2021/05/15 07:16:25;;;;;;;7.78;4.40;;;12.60;99.90;;;11.34;77.28;100239.97;3519990;39;103329;-40
2021/05/15 07:18:51;;;;;;;6.88;4.10;;;12.60;99.90;;;11.31;76.94;100243.16;3528199;39;103345;-38
2021/05/15 07:21:19;;;;;;;8.30;4.57;;;12.60;99.90;;;11.27;77.30;100239.22;3520137;39;104882;-40
2021/05/15 07:23:46;;;;;;;7.85;4.70;;;12.50;99.90;;;11.18;76.90;100240.63;3519681;39;104555;-39
2021/05/15 07:26:12;;;;;;;7.35;4.45;;;12.50;99.90;;;11.11;75.77;100248.06;3527849;39;105649;-40
2021/05/15 07:28:39;;;;;;;6.57;4.38;;;12.40;99.90;;;11.08;76.11;100235.72;3520067;39;102535;-39
2021/05/15 07:31:06;;;;;;;7.50;4.38;;;12.40;99.90;;;11.06;76.44;100229.66;3527870;39;102377;-39
2021/05/15 07:33:33;;;;;;;6.87;4.27;;;12.40;99.90;;;11.13;77.28;100230.38;3527820;39;103458;-39
2021/05/15 07:35:59;;;;;;;6.90;4.78;;;12.40;99.90;;;11.17;77.18;100228.03;3520034;39;103235;-40
2021/05/15 07:38:26;;;;;;;7.43;4.50;;;12.40;99.90;;;11.21;76.55;100229.25;3520221;39;102422;-40
2021/05/15 07:40:54;;;;;;;7.25;4.43;;;12.50;99.90;;;11.30;76.90;100230.56;3528118;39;103266;-40
2021/05/15 07:43:23;;;;;;;7.85;5.05;;;12.50;99.90;;;11.38;75.70;100223.97;3519643;39;102730;-39
2021/05/15 07:45:54;;;;;;;7.20;4.40;;;12.60;99.90;;;11.60;74.26;100224.25;3527363;39;102343;-40
2021/05/15 07:51:00;;;;;;;6.65;4.68;;;12.90;99.90;;;11.88;74.29;100225.47;3519679;39;106182;-39
2021/05/15 07:53:26;;;;;;;9.17;5.00;;;13.00;99.90;;;11.99;73.05;100225.75;3527864;39;102530;-39
2021/05/15 07:55:53;;;;;;;12.35;5.90;;;13.10;99.90;;;12.06;73.90;100226.50;3527610;39;104041;-40
2021/05/15 07:58:20;;;;;;;8.35;4.55;;;13.20;99.90;;;12.07;71.69;100222.69;3519483;39;102469;-39
2021/05/15 08:00:47;;;;;;;9.73;5.45;;;13.20;99.90;;;12.14;73.74;100217.91;3527864;39;104201;-40
2021/05/15 08:03:13;;;;;;;7.10;4.28;;;13.30;99.90;;;12.23;72.67;100221.13;3519053;39;104828;-40
2021/05/15 08:05:40;;;;;;;11.38;6.53;;;13.40;99.90;;;12.35;72.24;100229.34;3654414;22;103387;-40
2021/05/15 08:08:07;;;;;;;7.75;4.68;;;13.50;99.90;;;12.54;71.18;100221.00;3482130;40;103222;-39
2021/05/15 08:10:34;;;;;;;8.85;4.85;;;13.60;99.90;;;12.70;68.89;100214.75;3508467;40;103678;-39
2021/05/15 08:13:02;;;;;;;7.60;4.63;;;13.70;99.90;;;13.02;67.58;100222.53;3500446;40;102432;-39
2021/05/15 08:15:29;;;;;;;7.18;4.95;;;14.00;99.90;;;13.34;68.42;100218.47;3508243;40;102370;-39
2021/05/15 08:17:56;;;;;;;9.80;6.15;;;14.20;99.90;;;13.58;65.75;100223.84;3482631;40;104388;-39
2021/05/15 08:20:24;;;;;;;7.50;4.70;;;14.50;99.90;;;13.81;65.41;100223.72;3500598;40;102300;-39
2021/05/15 08:22:51;;;;;;;8.73;5.10;;;14.70;99.90;;;14.05;65.47;100217.22;3483052;40;102350;-39
2021/05/15 08:25:21;;;;;;;9.27;5.93;;;14.90;99.90;;;14.10;61.44;100209.06;3490961;40;103501;-39
2021/05/15 08:27:52;;;;;;;9.82;5.43;;;15.10;99.90;;;14.21;62.33;100210.88;3491012;40;102374;-39
2021/05/15 08:30:22;;;;;;;7.45;4.78;;;15.10;99.90;;;14.22;60.18;100215.28;3483725;40;103343;-39
2021/05/15 08:32:52;;;;;;;5.53;3.78;;;15.20;99.90;;;14.06;59.32;100216.97;3490846;40;102419;-39
2021/05/15 08:35:20;;;;;;;5.63;3.58;;;15.20;99.90;;;14.06;61.33;100218.91;3490578;40;105770;-39
2021/05/15 08:37:48;;;;;;;4.63;2.72;;;15.20;99.90;;;14.16;59.61;100215.44;3499754;40;103182;-39
2021/05/15 08:40:16;;;;;;;4.65;3.13;;;15.20;99.90;;;14.16;58.90;100213.56;3491301;40;102629;-39
2021/05/15 08:42:43;;;;;;;5.60;3.65;;;15.20;99.90;;;14.22;58.14;100215.28;3490995;40;102495;-39
2021/05/15 08:45:15;;;;;;;5.85;3.78;;;15.20;99.90;;;14.23;59.61;100210.66;3490471;40;102379;-39
2021/05/15 08:47:44;;;;;;;6.53;3.80;;;15.30;99.90;;;14.42;60.32;100207.59;3491232;40;103255;-39
2021/05/15 08:50:16;;;;;;;5.47;3.85;;;15.40;99.90;;;14.51;58.91;100212.41;3483165;40;103248;-39
2021/05/15 08:52:46;;;;;;;6.25;4.30;;;15.50;99.90;;;14.56;59.51;100208.06;3500015;40;102382;-39
2021/05/15 08:55:18;;;;;;;6.07;4.28;;;15.60;99.90;;;14.49;58.30;100208.25;3499445;40;103129;-39
2021/05/15 08:57:45;;;;;;;6.70;4.32;;;15.60;99.90;;;14.51;61.19;100200.59;3491108;40;104854;-40
2021/05/15 09:00:26;;;;;;;6.63;4.57;;;15.60;99.90;;;14.56;59.26;100200.66;3483077;40;103261;-39
2021/05/15 09:02:58;;;;;;;8.02;5.15;;;15.60;99.90;;;14.56;60.12;100199.81;3490792;40;103183;-39
2021/05/15 09:05:29;;;;;;;6.80;4.68;;;15.50;99.90;;;14.50;58.74;100190.72;3499690;40;102851;-40
2021/05/15 09:08:00;;;;;;;7.05;4.47;;;15.60;99.90;;;14.21;59.03;100199.09;3500250;40;103465;-39
2021/05/15 09:10:33;;;;;;;7.65;4.05;;;15.40;99.90;;;14.07;60.41;100193.13;3499957;40;103193;-40
2021/05/15 09:13:12;;;;;;;6.80;4.40;;;15.30;99.90;;;14.22;63.99;100206.25;3500363;40;104315;-39
2021/05/15 09:15:52;;;;;;;6.38;4.15;;;15.30;99.90;;;14.86;61.66;100193.91;3491233;40;102337;-39
2021/05/15 09:18:25;;;;;;;6.95;4.32;;;15.60;99.90;;;15.36;60.28;100180.16;3491562;40;102488;-39
2021/05/15 09:20:57;;;;;;;7.55;4.25;;;16.00;99.90;;;15.61;56.11;100174.03;3490798;40;102401;-39
2021/05/15 09:23:29;;;;;;;6.93;4.03;;;16.40;99.90;;;15.95;58.89;100178.47;3482242;40;102564;-39
2021/05/15 09:26:03;;;;;;;6.40;3.78;;;16.70;99.90;;;15.92;54.05;100179.84;3482958;40;105603;-40
2021/05/15 09:28:44;;;;;;;8.05;3.90;;;16.80;99.90;;;16.04;56.39;100173.31;3500237;40;102471;-40
2021/05/15 09:31:32;;;;;;;5.10;3.35;;;16.80;99.90;;;16.08;55.41;100169.75;3491986;40;102502;-41
2021/05/15 09:34:05;;;;;;;5.90;3.70;;;16.90;99.90;;;16.36;54.64;100164.97;3499858;40;103159;-39
2021/05/15 09:36:37;;;;;;;6.43;3.63;;;17.20;99.90;;;16.65;55.13;100160.94;3499642;40;102655;-40
2021/05/15 09:39:17;;;;;;;6.03;3.78;;;17.40;99.90;;;16.79;50.92;100158.50;3491363;40;102325;-39
2021/05/15 09:41:51;;;;;;;6.43;3.55;;;17.60;99.50;;;16.72;50.47;100145.03;3491372;40;103092;-42
2021/05/15 09:44:24;;;;;;;6.07;3.70;;;17.70;97.60;;;16.79;47.52;100140.06;3499790;40;102242;-40
2021/05/15 09:46:53;;;;;;;5.15;3.22;;;17.70;94.90;;;16.87;51.50;100135.13;3490933;40;103222;-40
2021/05/15 09:49:25;;;;;;;5.15;2.95;;;17.70;99.30;;;16.92;49.24;100118.59;3482911;40;104828;-40
2021/05/15 09:51:56;;;;;;;6.88;3.47;;;17.80;96.90;;;16.93;49.34;100121.09;3490900;40;103248;-40
2021/05/15 09:54:26;;;;;;;5.47;3.72;;;17.90;96.70;;;16.92;50.46;100113.94;3499218;40;102463;-40
2021/05/15 09:57:16;;;;;;;5.45;3.17;;;17.90;97.70;;;17.06;53.52;100110.66;3499739;40;102573;-39
2021/05/15 09:59:49;;;;;;;4.80;3.10;;;17.90;99.90;;;16.89;49.31;100119.16;3500168;40;102069;-40
2021/05/15 10:02:20;;;;;;;5.55;3.17;;;17.90;96.40;;;16.93;47.91;100114.75;3490321;40;105997;-40
2021/05/15 10:04:51;;;;;;;3.97;2.55;;;17.80;94.90;;;16.93;52.89;100106.47;3499676;40;102596;-41
2021/05/15 10:07:21;;;;;;;4.88;3.17;;;17.80;99.90;;;16.95;50.90;100107.88;3499575;40;103131;-40
2021/05/15 10:09:49;;;;;;;5.05;3.03;;;17.80;98.60;;;16.94;50.87;100099.88;3500001;40;104153;-40
2021/05/15 10:12:20;;;;;;;5.15;3.22;;;17.80;98.20;;;16.93;50.52;100106.47;3490808;40;102412;-40
2021/05/15 10:14:49;;;;;;;5.70;3.03;;;17.90;97.40;;;16.96;49.46;100101.28;3499455;40;102511;-42
2021/05/15 10:17:16;;;;;;;7.95;3.13;;;17.90;97.10;;;16.92;48.60;100091.91;3499656;40;102892;-40
2021/05/15 10:19:44;;;;;;;4.43;2.65;;;17.80;96.00;;;16.86;51.13;100090.25;3490934;40;102417;-40